logo
Search for airport 
image banner adimage banner adimage banner ad
image banner ad

FAPM - Pietermaritzburg

Located in Pietermaritzburg, South Africa

ICAO - FAPM, IATA - PZB

Data provided by Airmate  

General information

Coordinates: S29°38'48" E30°23'52"
Elevation is 2423 feet MSL.
Magnetic variation is -26° East
Rated:
View ratings:
[VIEW]
View others Airports in Kwazulu-Natal

Operational data

Special qualification required
Current time UTC:
Current local time:
Weather
TAF: TAF FAPM 240900Z 2410/2421 17011KT CAVOK TX23/2412Z TN09/2421Z PROB30 TEMPO 2412/2415 16010G20KT FM241500 14008KT 9999 SCT015
View NOTAMs / SUP AIP / TFR affecting this airport [VIEW]
Communications frequencies: [VIEW]

Runways:

RWY identifierQFULength (ft)Width (ft)SurfaceLDA (ft)
34322°504893ASPH5043
16142°504893ASPH

Airport contact information

Address: Pietermaritzburg South Africa

Other aviation service providers

Aviation club (not for profit)

Pietermaritzburg Aero Club

Pietermaritzburg Aero Club

Satellite view of FAPM